createdAt,value
2023-02-27T00:00:15.291Z,94.34
2023-02-27T00:01:16.905Z,93.96
2023-02-27T00:02:18.481Z,94.36
2023-02-27T00:03:20.135Z,94.12
2023-02-27T00:04:21.754Z,93.59
2023-02-27T00:05:23.363Z,94.33
2023-02-27T00:06:24.977Z,94.38
2023-02-27T00:07:28.724Z,94.76
2023-02-27T00:08:30.316Z,93.77
2023-02-27T00:09:31.860Z,94.08
2023-02-27T00:10:33.440Z,94.64
2023-02-27T00:11:34.975Z,94.09
2023-02-27T00:12:38.040Z,94.55
2023-02-27T00:13:40.053Z,94.38
2023-02-27T00:14:41.559Z,94.52
2023-02-27T00:15:46.967Z,95.13
2023-02-27T00:16:48.598Z,94.60
2023-02-27T00:17:50.332Z,94.37
2023-02-27T00:18:51.906Z,93.99
2023-02-27T00:19:53.460Z,92.95
2023-02-27T00:20:54.970Z,91.85
2023-02-27T00:21:56.558Z,92.74
2023-02-27T00:22:58.175Z,92.20
2023-02-27T00:23:59.777Z,92.09
2023-02-27T00:25:01.356Z,93.15
2023-02-27T00:26:02.979Z,93.06
2023-02-27T00:27:04.520Z,92.27
2023-02-27T00:28:06.099Z,92.46
2023-02-27T00:29:08.005Z,92.36
2023-02-27T00:30:12.844Z,92.25
2023-02-27T00:31:14.513Z,92.23
2023-02-27T00:32:16.147Z,92.64
2023-02-27T00:33:17.778Z,92.91
2023-02-27T00:34:19.338Z,93.41
2023-02-27T00:35:21.747Z,92.64
2023-02-27T00:36:23.515Z,92.29
2023-02-27T00:37:25.077Z,92.43
2023-02-27T00:38:26.984Z,92.56
2023-02-27T00:39:28.488Z,92.64
2023-02-27T00:40:30.158Z,92.77
2023-02-27T00:41:31.731Z,92.21
2023-02-27T00:42:33.920Z,92.34
2023-02-27T00:43:35.645Z,92.68
2023-02-27T00:44:38.553Z,92.89
2023-02-27T00:45:40.083Z,92.71
2023-02-27T00:46:41.700Z,93.34
2023-02-27T00:47:43.595Z,92.58
2023-02-27T00:48:45.191Z,92.49
2023-02-27T00:49:46.706Z,91.77
2023-02-27T00:50:50.424Z,90.29
2023-02-27T00:51:52.668Z,90.59
2023-02-27T00:52:54.227Z,91.03
2023-02-27T00:53:56.179Z,90.95
2023-02-27T00:54:57.697Z,90.05
2023-02-27T00:55:59.201Z,90.48
2023-02-27T00:57:00.775Z,89.78
2023-02-27T00:58:02.337Z,89.36
2023-02-27T00:59:04.445Z,89.35
2023-02-27T01:00:08.476Z,89.20
2023-02-27T01:01:10.042Z,89.11
2023-02-27T01:02:11.676Z,88.48
2023-02-27T01:03:13.229Z,88.93
2023-02-27T01:04:14.983Z,88.76
2023-02-27T01:05:16.726Z,89.25
2023-02-27T01:06:18.292Z,88.39
2023-02-27T01:07:19.932Z,88.76
2023-02-27T01:08:21.540Z,88.49
2023-02-27T01:09:25.003Z,87.76
2023-02-27T01:10:26.587Z,87.73
2023-02-27T01:11:28.751Z,87.21
2023-02-27T01:12:30.292Z,87.08
2023-02-27T01:13:32.123Z,85.86
2023-02-27T01:14:33.683Z,86.36
2023-02-27T01:15:35.342Z,86.65
2023-02-27T01:16:36.962Z,87.42
2023-02-27T01:17:38.713Z,87.15
2023-02-27T01:18:40.650Z,87.08
2023-02-27T01:19:42.296Z,87.30
2023-02-27T01:20:43.869Z,87.35
2023-02-27T01:21:45.773Z,87.83
2023-02-27T01:22:47.439Z,86.98
2023-02-27T01:23:49.655Z,86.42
2023-02-27T01:24:51.248Z,86.11
2023-02-27T01:25:52.812Z,86.78
2023-02-27T01:26:54.331Z,86.69
2023-02-27T01:27:55.859Z,86.21
2023-02-27T01:28:57.422Z,86.94
2023-02-27T01:29:58.980Z,85.45
2023-02-27T01:31:00.584Z,85.30
2023-02-27T01:32:02.361Z,85.21
2023-02-27T01:33:04.126Z,85.34
2023-02-27T01:34:05.691Z,84.53
2023-02-27T01:35:07.638Z,84.19
2023-02-27T01:36:09.817Z,84.66
2023-02-27T01:37:11.391Z,84.50
2023-02-27T01:38:13.025Z,84.80
2023-02-27T01:39:14.661Z,84.50
2023-02-27T01:40:16.245Z,85.00
2023-02-27T01:41:17.962Z,85.67
2023-02-27T01:42:24.058Z,83.93
2023-02-27T01:43:25.645Z,83.02
2023-02-27T01:44:30.065Z,83.75
2023-02-27T01:45:42.632Z,84.08
2023-02-27T01:46:44.624Z,83.14
2023-02-27T01:47:50.079Z,83.17
2023-02-27T01:48:55.665Z,83.42
2023-02-27T01:49:57.321Z,83.87
2023-02-27T01:51:13.932Z,84.18
2023-02-27T01:52:16.385Z,84.29
2023-02-27T01:53:19.569Z,84.70
2023-02-27T01:54:24.875Z,84.88
2023-02-27T01:55:29.366Z,85.12
2023-02-27T01:56:32.342Z,84.46
2023-02-27T01:57:35.068Z,84.25
2023-02-27T01:58:37.594Z,85.13
2023-02-27T01:59:41.813Z,85.12
2023-02-27T02:00:43.742Z,85.22
2023-02-27T02:01:46.018Z,84.73
2023-02-27T02:02:58.681Z,84.86
2023-02-27T02:04:13.260Z,84.58
2023-02-27T02:05:15.134Z,85.00
2023-02-27T02:06:16.908Z,84.98
2023-02-27T02:07:21.220Z,84.81
2023-02-27T02:08:26.832Z,84.77
2023-02-27T02:09:29.686Z,82.38
2023-02-27T02:10:32.962Z,79.24
2023-02-27T02:11:34.602Z,77.96
2023-02-27T02:12:38.419Z,76.91
2023-02-27T02:13:41.730Z,77.76
2023-02-27T02:14:43.845Z,78.94
2023-02-27T02:15:58.973Z,78.93
2023-02-27T02:17:03.413Z,80.67
2023-02-27T02:18:14.760Z,82.32
2023-02-27T02:19:54.672Z,82.40
2023-02-27T02:21:14.970Z,88.33
2023-02-27T02:22:37.539Z,89.96
2023-02-27T02:23:50.488Z,90.31
2023-02-27T02:25:13.380Z,92.21
2023-02-27T02:26:33.216Z,93.85
2023-02-27T02:28:07.278Z,96.28
2023-02-27T02:29:44.027Z,98.01
2023-02-27T02:31:27.315Z,97.66
2023-02-27T02:32:50.739Z,98.61
2023-02-27T02:34:11.024Z,100.00
2023-02-27T02:35:15.309Z,100.00
2023-02-27T02:36:50.367Z,100.00
2023-02-27T02:38:00.619Z,100.00
2023-02-27T02:39:04.876Z,100.00
2023-02-27T02:40:06.568Z,100.00
2023-02-27T02:41:13.907Z,100.00
2023-02-27T02:42:27.060Z,100.00
2023-02-27T02:43:41.384Z,100.00
2023-02-27T02:45:10.672Z,100.00
2023-02-27T02:46:18.286Z,100.00
2023-02-27T02:47:31.340Z,100.00
2023-02-27T02:48:52.911Z,100.00
2023-02-27T02:49:54.470Z,100.00
2023-02-27T02:51:30.623Z,100.00
2023-02-27T02:52:59.353Z,100.00
2023-02-27T02:54:09.395Z,100.00
2023-02-27T02:55:34.549Z,100.00
2023-02-27T02:56:40.542Z,100.00
2023-02-27T02:57:59.994Z,100.00
2023-02-27T02:59:28.997Z,100.00
2023-02-27T03:00:35.953Z,100.00
2023-02-27T03:01:49.256Z,100.00
2023-02-27T03:03:06.306Z,100.00
2023-02-27T03:04:20.533Z,100.00
2023-02-27T03:05:27.365Z,100.00
2023-02-27T03:06:32.398Z,100.00
2023-02-27T03:07:37.797Z,100.00
2023-02-27T03:08:55.631Z,100.00
2023-02-27T03:10:03.031Z,100.00
2023-02-27T03:11:05.597Z,100.00
2023-02-27T03:12:10.981Z,100.00
2023-02-27T03:13:22.515Z,100.00
2023-02-27T03:14:50.816Z,100.00
2023-02-27T03:16:01.374Z,100.00
2023-02-27T03:17:10.478Z,100.00
2023-02-27T03:18:24.526Z,100.00
2023-02-27T03:19:34.147Z,100.00
2023-02-27T03:20:43.123Z,100.00
2023-02-27T03:21:56.923Z,100.00
2023-02-27T03:23:08.750Z,99.49
2023-02-27T03:24:16.999Z,99.17
2023-02-27T03:25:20.590Z,98.80
2023-02-27T03:26:30.286Z,98.23
2023-02-27T03:27:37.941Z,97.93
2023-02-27T03:28:44.814Z,97.91
2023-02-27T03:30:09.031Z,96.93
2023-02-27T03:31:23.906Z,97.14
2023-02-27T03:32:52.936Z,95.60
2023-02-27T03:34:01.497Z,96.13
2023-02-27T03:35:07.168Z,94.39
2023-02-27T03:36:47.438Z,95.19
2023-02-27T03:38:01.327Z,95.81
2023-02-27T03:39:30.284Z,96.61
2023-02-27T03:40:37.780Z,95.53
2023-02-27T03:41:52.038Z,96.38
2023-02-27T03:43:02.654Z,95.47
2023-02-27T03:44:21.422Z,93.58
2023-02-27T03:45:39.280Z,93.53
2023-02-27T03:46:41.762Z,93.75
2023-02-27T03:47:43.492Z,93.95
2023-02-27T03:48:46.664Z,94.49
2023-02-27T03:49:51.180Z,94.61
2023-02-27T03:50:52.804Z,94.30
2023-02-27T03:51:54.685Z,95.05
2023-02-27T03:52:57.594Z,95.80
2023-02-27T03:54:07.582Z,95.49
2023-02-27T03:55:15.677Z,96.10
2023-02-27T03:56:24.122Z,96.40
2023-02-27T03:57:26.913Z,96.83
2023-02-27T03:58:29.018Z,95.61
2023-02-27T03:59:32.887Z,96.02
2023-02-27T04:00:34.898Z,97.10
2023-02-27T04:01:36.652Z,96.50
2023-02-27T04:02:39.916Z,97.07
2023-02-27T04:03:51.565Z,96.53
2023-02-27T04:04:53.108Z,97.14
2023-02-27T04:05:54.745Z,97.19
2023-02-27T04:07:23.789Z,98.25
2023-02-27T04:09:00.409Z,97.90
2023-02-27T04:10:46.989Z,97.38
2023-02-27T04:12:09.264Z,96.49
2023-02-27T04:13:13.841Z,96.83
2023-02-27T04:14:27.949Z,97.52
2023-02-27T04:15:29.557Z,97.62
2023-02-27T04:16:34.040Z,97.17
2023-02-27T04:17:56.191Z,96.74
2023-02-27T04:19:28.806Z,97.02
2023-02-27T04:20:43.230Z,96.38
2023-02-27T04:22:11.791Z,95.79
2023-02-27T04:23:20.967Z,96.34
2023-02-27T04:24:36.714Z,96.35
2023-02-27T04:26:05.434Z,95.16
2023-02-27T04:27:13.041Z,93.76
2023-02-27T04:28:25.338Z,92.61
2023-02-27T04:29:42.472Z,93.54
2023-02-27T04:30:59.288Z,93.13
2023-02-27T04:32:37.777Z,93.76
2023-02-27T04:33:49.268Z,93.21
2023-02-27T04:35:16.145Z,94.38
2023-02-27T04:36:36.050Z,94.20
2023-02-27T04:37:46.751Z,94.30
2023-02-27T04:38:57.118Z,94.67
2023-02-27T04:40:17.068Z,94.23
2023-02-27T04:41:23.549Z,93.82
2023-02-27T04:42:29.937Z,93.34
2023-02-27T04:43:34.707Z,93.99
2023-02-27T04:44:38.504Z,93.75
2023-02-27T04:45:41.616Z,93.63
2023-02-27T04:46:45.829Z,92.29
2023-02-27T04:47:52.974Z,92.77
2023-02-27T04:49:01.108Z,93.86
2023-02-27T04:50:12.603Z,94.21
2023-02-27T04:51:18.078Z,93.09
2023-02-27T04:52:35.954Z,93.80
2023-02-27T04:53:52.457Z,93.05
2023-02-27T04:55:06.005Z,92.99
2023-02-27T04:56:17.294Z,93.14
2023-02-27T04:57:24.822Z,93.32
2023-02-27T04:58:38.218Z,92.64
2023-02-27T04:59:52.779Z,93.30
2023-02-27T05:01:13.000Z,92.57
2023-02-27T05:02:33.304Z,93.08
2023-02-27T05:03:40.125Z,94.24
2023-02-27T05:04:45.071Z,95.38
2023-02-27T05:05:48.782Z,95.57
2023-02-27T05:06:54.304Z,95.61
2023-02-27T05:08:05.173Z,94.68
2023-02-27T05:09:14.026Z,95.02
2023-02-27T05:10:19.195Z,93.32
2023-02-27T05:11:26.916Z,92.81
2023-02-27T05:13:06.723Z,93.84
2023-02-27T05:14:17.203Z,93.47
2023-02-27T05:15:27.144Z,94.34
2023-02-27T05:16:40.025Z,93.79
2023-02-27T05:17:49.272Z,93.85
2023-02-27T05:18:51.350Z,92.37
2023-02-27T05:19:53.105Z,92.36
2023-02-27T05:21:08.006Z,91.96
2023-02-27T05:22:36.314Z,90.65
2023-02-27T05:23:47.735Z,91.76
2023-02-27T05:24:54.667Z,91.10
2023-02-27T05:26:15.434Z,91.72
2023-02-27T05:27:25.114Z,91.65
2023-02-27T05:28:33.676Z,93.27
2023-02-27T05:29:56.154Z,92.99
2023-02-27T05:31:04.326Z,92.75
2023-02-27T05:32:17.098Z,92.53
2023-02-27T05:33:27.637Z,92.46
2023-02-27T05:34:42.477Z,92.58
2023-02-27T05:36:10.480Z,92.31
2023-02-27T05:37:18.005Z,92.52
2023-02-27T05:38:25.916Z,92.89
2023-02-27T05:39:30.759Z,93.36
2023-02-27T05:40:45.365Z,93.63
2023-02-27T05:41:56.524Z,93.19
2023-02-27T05:43:06.364Z,93.46
2023-02-27T05:44:17.507Z,94.37
2023-02-27T05:45:27.281Z,94.37
2023-02-27T05:46:33.120Z,93.86
2023-02-27T05:47:38.971Z,95.51
2023-02-27T05:48:50.362Z,96.70
2023-02-27T05:50:11.643Z,97.23
2023-02-27T05:51:16.845Z,98.25
2023-02-27T05:52:23.308Z,96.87
2023-02-27T05:53:31.187Z,96.19
2023-02-27T05:54:41.919Z,95.58
2023-02-27T05:55:56.550Z,95.66
2023-02-27T05:56:59.816Z,94.50
2023-02-27T05:58:19.094Z,93.95
2023-02-27T05:59:39.286Z,92.64
2023-02-27T06:00:53.668Z,92.94
2023-02-27T06:01:55.808Z,92.20
2023-02-27T06:02:57.634Z,91.55
2023-02-27T06:03:59.289Z,91.69
2023-02-27T06:05:00.885Z,92.77
2023-02-27T06:06:06.293Z,93.57
2023-02-27T06:07:08.651Z,93.30
2023-02-27T06:08:11.133Z,94.82
2023-02-27T06:09:12.724Z,95.40
2023-02-27T06:10:16.560Z,95.99
2023-02-27T06:11:18.154Z,95.75
2023-02-27T06:12:19.655Z,96.91
2023-02-27T06:13:22.262Z,96.49
2023-02-27T06:14:23.820Z,96.30
2023-02-27T06:15:25.462Z,96.36
2023-02-27T06:16:27.662Z,96.27
2023-02-27T06:17:29.459Z,96.57
2023-02-27T06:18:31.062Z,97.60
2023-02-27T06:19:32.641Z,98.98
2023-02-27T06:20:34.465Z,98.53
2023-02-27T06:21:36.010Z,99.95
2023-02-27T06:22:37.604Z,99.16
2023-02-27T06:23:39.160Z,99.43
2023-02-27T06:24:40.745Z,100.00
2023-02-27T06:25:42.357Z,100.00
2023-02-27T06:26:44.030Z,100.00
2023-02-27T06:27:45.573Z,100.00
2023-02-27T06:28:47.124Z,100.00
2023-02-27T06:29:48.656Z,100.00
2023-02-27T06:30:57.312Z,100.00
2023-02-27T06:31:59.454Z,100.00
2023-02-27T06:33:01.159Z,100.00
2023-02-27T06:34:02.922Z,100.00
2023-02-27T06:35:06.313Z,100.00
2023-02-27T06:36:07.990Z,100.00
2023-02-27T06:37:09.574Z,100.00
2023-02-27T06:38:11.154Z,100.00
2023-02-27T06:39:12.923Z,100.00
2023-02-27T06:40:15.497Z,100.00
2023-02-27T06:41:17.068Z,100.00
2023-02-27T06:42:19.090Z,99.32
2023-02-27T06:43:23.169Z,99.42
2023-02-27T06:44:24.845Z,99.67
2023-02-27T06:45:26.537Z,100.00
2023-02-27T06:46:28.413Z,100.00
2023-02-27T06:47:30.236Z,100.00
2023-02-27T06:48:32.030Z,100.00
2023-02-27T06:49:33.601Z,100.00
2023-02-27T06:50:35.724Z,100.00
2023-02-27T06:51:37.337Z,100.00
2023-02-27T06:52:40.017Z,100.00
2023-02-27T06:53:41.738Z,100.00
2023-02-27T06:54:43.244Z,100.00
2023-02-27T06:55:44.799Z,100.00
2023-02-27T06:56:46.436Z,100.00
2023-02-27T06:57:48.335Z,100.00
2023-02-27T06:58:49.910Z,100.00
2023-02-27T06:59:51.696Z,100.00
2023-02-27T07:00:53.385Z,100.00
2023-02-27T07:01:55.203Z,100.00
2023-02-27T07:02:56.764Z,100.00
2023-02-27T07:03:58.394Z,100.00
2023-02-27T07:04:59.997Z,100.00
2023-02-27T07:06:03.490Z,100.00
2023-02-27T07:07:35.978Z,100.00
2023-02-27T07:08:26.919Z,100.00
2023-02-27T07:09:28.473Z,100.00
2023-02-27T07:10:30.262Z,100.00
2023-02-27T07:11:31.817Z,100.00
2023-02-27T07:12:33.373Z,100.00
2023-02-27T07:13:35.057Z,100.00
2023-02-27T07:14:36.597Z,100.00
2023-02-27T07:15:38.271Z,100.00
2023-02-27T07:16:40.459Z,99.67
2023-02-27T07:17:42.085Z,98.54
2023-02-27T07:18:43.636Z,98.31
2023-02-27T07:19:45.570Z,98.00
2023-02-27T07:20:51.163Z,97.85
2023-02-27T07:21:52.683Z,97.85
2023-02-27T07:22:54.251Z,97.44
2023-02-27T07:23:55.837Z,97.12
2023-02-27T07:24:57.448Z,96.29
2023-02-27T07:25:59.021Z,95.35
2023-02-27T07:27:00.562Z,96.04
2023-02-27T07:28:02.576Z,95.18
2023-02-27T07:29:05.177Z,96.43
2023-02-27T07:30:07.443Z,95.17
2023-02-27T07:31:09.086Z,95.57
2023-02-27T07:32:11.329Z,95.83
2023-02-27T07:33:13.079Z,95.21
2023-02-27T07:34:15.651Z,94.74
2023-02-27T07:35:17.215Z,93.92
2023-02-27T07:36:18.841Z,93.21
2023-02-27T07:37:20.512Z,92.88
2023-02-27T07:38:24.021Z,92.49
2023-02-27T07:39:25.663Z,92.62
2023-02-27T07:40:27.376Z,90.44
2023-02-27T07:41:31.138Z,90.00
2023-02-27T07:42:33.004Z,91.18
2023-02-27T07:43:34.571Z,93.76
2023-02-27T07:44:36.293Z,93.99
2023-02-27T07:45:37.926Z,93.60
2023-02-27T07:46:39.541Z,93.01
2023-02-27T07:47:41.137Z,93.61
2023-02-27T07:48:42.707Z,95.01
2023-02-27T07:49:44.324Z,95.23
2023-02-27T07:50:45.891Z,95.86
2023-02-27T07:51:48.422Z,95.88
2023-02-27T07:52:52.025Z,94.00
2023-02-27T07:53:53.598Z,94.66
2023-02-27T07:54:55.153Z,95.29
2023-02-27T07:55:56.758Z,96.57
2023-02-27T07:56:58.470Z,96.74
2023-02-27T07:58:00.045Z,96.39
2023-02-27T07:59:01.858Z,96.58
2023-02-27T08:00:07.986Z,95.73
2023-02-27T08:01:09.537Z,95.58
2023-02-27T08:02:12.660Z,95.53
2023-02-27T08:03:14.384Z,94.65
2023-02-27T08:04:16.239Z,93.99
2023-02-27T08:05:18.021Z,93.54
2023-02-27T08:06:19.705Z,92.61
2023-02-27T08:07:21.293Z,93.71
2023-02-27T08:08:22.888Z,90.66
2023-02-27T08:09:24.563Z,91.23
2023-02-27T08:10:26.730Z,90.57
2023-02-27T08:11:28.628Z,91.49
2023-02-27T08:12:30.388Z,91.19
2023-02-27T08:13:59.001Z,92.26
2023-02-27T08:14:53.447Z,91.64
2023-02-27T08:15:55.050Z,91.23
2023-02-27T08:16:56.784Z,90.52
2023-02-27T08:17:58.589Z,89.39
2023-02-27T08:19:00.800Z,90.06
2023-02-27T08:20:02.534Z,89.47
2023-02-27T08:21:05.136Z,89.19
2023-02-27T08:22:07.506Z,87.94
2023-02-27T08:23:09.690Z,84.95
2023-02-27T08:24:11.208Z,84.30
2023-02-27T08:25:12.785Z,85.08
2023-02-27T08:26:14.883Z,85.74
2023-02-27T08:27:16.407Z,86.21
2023-02-27T08:28:18.335Z,85.06
2023-02-27T08:29:19.996Z,85.38
2023-02-27T08:30:21.697Z,86.73
2023-02-27T08:31:23.661Z,86.35
2023-02-27T08:32:25.467Z,85.02
2023-02-27T08:33:27.164Z,82.91
2023-02-27T08:34:30.302Z,81.05
2023-02-27T08:35:31.907Z,79.00
2023-02-27T08:36:33.627Z,78.95
2023-02-27T08:37:35.619Z,79.44
2023-02-27T08:38:37.238Z,80.00
2023-02-27T08:39:38.879Z,80.11
2023-02-27T08:40:40.475Z,78.79
2023-02-27T08:41:42.058Z,80.29
2023-02-27T08:42:43.600Z,79.85
2023-02-27T08:43:45.139Z,80.73
2023-02-27T08:44:46.657Z,80.01
2023-02-27T08:45:49.385Z,76.48
2023-02-27T08:46:50.995Z,76.93
2023-02-27T08:47:52.714Z,73.72
2023-02-27T08:48:54.873Z,74.47
2023-02-27T08:49:56.796Z,74.20
2023-02-27T08:50:58.408Z,74.05
2023-02-27T08:52:01.165Z,73.98
2023-02-27T08:53:02.731Z,74.73
2023-02-27T08:54:04.409Z,76.80
2023-02-27T08:55:06.641Z,75.25
2023-02-27T08:56:08.340Z,76.72
2023-02-27T08:57:09.885Z,77.72
2023-02-27T08:58:11.418Z,77.18
2023-02-27T08:59:13.167Z,73.89
2023-02-27T09:00:15.359Z,72.54
2023-02-27T09:01:17.024Z,74.82
2023-02-27T09:02:18.597Z,77.62
2023-02-27T09:03:21.404Z,77.53
2023-02-27T09:04:22.975Z,75.34
2023-02-27T09:05:24.589Z,78.12
2023-02-27T09:06:26.579Z,79.28
2023-02-27T09:07:28.181Z,77.83
2023-02-27T09:08:29.942Z,79.27
2023-02-27T09:09:31.877Z,79.65
2023-02-27T09:10:33.945Z,76.95
2023-02-27T09:11:37.471Z,77.09
2023-02-27T09:12:40.448Z,75.36
2023-02-27T09:13:42.235Z,75.92
2023-02-27T09:14:43.824Z,79.48
2023-02-27T09:15:47.859Z,77.47
2023-02-27T09:16:49.571Z,77.94
2023-02-27T09:17:51.565Z,76.15
2023-02-27T09:18:54.073Z,76.55
2023-02-27T09:19:57.425Z,76.98
2023-02-27T09:21:00.048Z,74.69
2023-02-27T09:22:01.865Z,76.68
2023-02-27T09:23:04.308Z,75.45
2023-02-27T09:24:18.754Z,73.36
2023-02-27T09:25:24.132Z,74.14
2023-02-27T09:26:40.721Z,72.74
2023-02-27T09:27:45.193Z,74.44
2023-02-27T09:28:46.801Z,72.66
2023-02-27T09:29:48.985Z,72.39
2023-02-27T09:30:50.719Z,71.78
2023-02-27T09:31:52.411Z,71.83
2023-02-27T09:32:54.070Z,72.54
2023-02-27T09:33:57.354Z,71.15
2023-02-27T09:34:59.196Z,74.14
2023-02-27T09:36:00.832Z,72.74
2023-02-27T09:37:02.556Z,72.73
2023-02-27T09:38:04.313Z,71.87
2023-02-27T09:39:05.872Z,72.26
2023-02-27T09:40:11.892Z,71.13
2023-02-27T09:41:44.008Z,71.19
2023-02-27T09:42:47.758Z,72.01
2023-02-27T09:43:51.753Z,72.08
2023-02-27T09:44:57.658Z,72.27
2023-02-27T09:46:01.995Z,73.13
2023-02-27T09:47:13.206Z,72.28
2023-02-27T09:48:32.237Z,72.77
2023-02-27T09:49:49.475Z,71.95
2023-02-27T09:50:52.663Z,72.12
2023-02-27T09:51:54.334Z,72.09
2023-02-27T09:52:57.145Z,69.02
2023-02-27T09:54:01.228Z,68.86
2023-02-27T09:55:06.522Z,71.54
2023-02-27T09:56:22.496Z,69.67
2023-02-27T09:57:48.235Z,70.53
2023-02-27T09:59:19.603Z,68.49
2023-02-27T10:00:30.441Z,68.56
2023-02-27T10:01:42.267Z,65.84
2023-02-27T10:02:49.502Z,65.59
2023-02-27T10:04:02.995Z,64.32
2023-02-27T10:05:35.709Z,64.45
2023-02-27T10:06:44.288Z,67.26
2023-02-27T10:08:03.124Z,63.80
2023-02-27T10:09:39.954Z,63.72
2023-02-27T10:11:05.888Z,61.71
2023-02-27T10:12:32.336Z,61.69
2023-02-27T10:13:50.929Z,63.20
2023-02-27T10:14:58.860Z,63.70
2023-02-27T10:16:03.566Z,62.66
2023-02-27T10:17:28.449Z,64.59
2023-02-27T10:18:52.251Z,62.37
2023-02-27T10:19:55.132Z,61.82
2023-02-27T10:21:04.363Z,62.67
2023-02-27T10:22:12.872Z,63.30
2023-02-27T10:23:19.111Z,61.33
2023-02-27T10:24:33.934Z,59.28
2023-02-27T10:25:43.602Z,57.40
2023-02-27T10:26:45.994Z,57.84
2023-02-27T10:27:50.010Z,60.82
2023-02-27T10:28:51.622Z,59.48
2023-02-27T10:30:01.646Z,58.18
2023-02-27T10:31:15.812Z,58.72
2023-02-27T10:32:31.802Z,60.42
2023-02-27T10:33:37.281Z,56.47
2023-02-27T10:34:42.166Z,56.76
2023-02-27T10:35:45.291Z,58.77
2023-02-27T10:36:47.597Z,56.32
2023-02-27T10:37:54.103Z,58.14
2023-02-27T10:38:59.846Z,58.76
2023-02-27T10:40:06.780Z,56.20
2023-02-27T10:41:12.884Z,54.35
2023-02-27T10:42:16.386Z,54.54
2023-02-27T10:43:19.264Z,53.88
2023-02-27T10:44:21.038Z,53.79
2023-02-27T10:45:22.915Z,56.34
2023-02-27T10:46:34.266Z,55.39
2023-02-27T10:47:38.877Z,55.04
2023-02-27T10:48:40.920Z,54.40
2023-02-27T10:49:43.974Z,56.47
2023-02-27T10:50:52.086Z,57.15
2023-02-27T10:52:11.646Z,58.17
2023-02-27T10:53:24.894Z,56.95
2023-02-27T10:54:26.464Z,56.95
2023-02-27T10:55:34.058Z,57.46
2023-02-27T10:56:35.830Z,55.77
2023-02-27T10:57:42.283Z,55.63
2023-02-27T10:58:43.894Z,54.11
2023-02-27T10:59:52.368Z,54.91
2023-02-27T11:00:57.021Z,55.06
2023-02-27T11:02:06.087Z,54.04
2023-02-27T11:03:24.861Z,53.96
2023-02-27T11:04:26.453Z,53.82
2023-02-27T11:05:36.867Z,53.92
2023-02-27T11:06:39.123Z,54.06
2023-02-27T11:07:40.734Z,55.11
2023-02-27T11:08:43.632Z,54.36
2023-02-27T11:10:00.113Z,53.53
2023-02-27T11:11:05.099Z,53.01
2023-02-27T11:12:19.098Z,52.57
2023-02-27T11:13:22.683Z,52.07
2023-02-27T11:14:31.013Z,52.32
2023-02-27T11:15:38.278Z,51.78
2023-02-27T11:16:50.825Z,52.41
2023-02-27T11:17:53.270Z,53.66
2023-02-27T11:18:55.809Z,54.06
2023-02-27T11:19:58.853Z,53.98
2023-02-27T11:21:14.187Z,53.72
2023-02-27T11:22:18.652Z,52.95
2023-02-27T11:23:23.475Z,54.63
2023-02-27T11:24:25.053Z,52.82
2023-02-27T11:25:26.565Z,53.77
2023-02-27T11:26:33.220Z,51.62
2023-02-27T11:27:34.818Z,52.64
2023-02-27T11:28:36.359Z,53.55
2023-02-27T11:29:38.038Z,52.71
2023-02-27T11:30:39.622Z,52.92
2023-02-27T11:31:50.803Z,50.78
2023-02-27T11:32:54.410Z,50.39
2023-02-27T11:33:57.950Z,51.45
2023-02-27T11:34:59.681Z,51.44
2023-02-27T11:36:02.881Z,49.28
2023-02-27T11:37:36.744Z,49.39
2023-02-27T11:38:38.608Z,51.43
2023-02-27T11:40:08.924Z,51.10
2023-02-27T11:41:11.079Z,49.92
2023-02-27T11:42:18.547Z,51.88
2023-02-27T11:43:24.181Z,50.04
2023-02-27T11:44:49.723Z,51.99
2023-02-27T11:46:44.802Z,51.35
2023-02-27T11:47:48.545Z,52.86
2023-02-27T11:49:00.018Z,53.63
2023-02-27T11:50:23.265Z,55.04
2023-02-27T11:51:49.943Z,54.90
2023-02-27T11:53:21.658Z,56.97
2023-02-27T11:54:45.494Z,56.72
2023-02-27T11:55:49.368Z,56.46
2023-02-27T11:56:56.415Z,54.51
2023-02-27T11:58:26.840Z,52.20
2023-02-27T11:59:50.680Z,53.46
2023-02-27T12:01:01.537Z,54.52
2023-02-27T12:02:18.739Z,53.66
2023-02-27T12:03:40.920Z,53.72
2023-02-27T12:05:24.092Z,55.93
2023-02-27T12:06:46.756Z,55.51
2023-02-27T12:08:26.967Z,55.85
2023-02-27T12:09:42.762Z,55.82
2023-02-27T12:11:12.471Z,53.98
2023-02-27T12:12:33.327Z,51.40
2023-02-27T12:13:40.661Z,50.82
2023-02-27T12:14:42.204Z,51.92
2023-02-27T12:16:12.162Z,51.15
2023-02-27T12:17:40.614Z,50.29
2023-02-27T12:18:47.901Z,52.63
2023-02-27T12:20:01.344Z,53.84
2023-02-27T12:21:20.287Z,52.08
2023-02-27T12:22:26.699Z,52.11
2023-02-27T12:23:50.246Z,52.92
2023-02-27T12:24:57.665Z,52.71
2023-02-27T12:26:25.954Z,53.17
2023-02-27T12:27:46.759Z,53.52
2023-02-27T12:28:52.956Z,52.10
2023-02-27T12:30:02.760Z,52.42
2023-02-27T12:31:35.324Z,51.32
2023-02-27T12:33:02.424Z,52.84
2023-02-27T12:34:32.009Z,53.40
2023-02-27T12:35:33.906Z,52.28
2023-02-27T12:36:35.578Z,53.65
2023-02-27T12:37:38.047Z,54.44
2023-02-27T12:38:40.152Z,53.50
2023-02-27T12:39:45.105Z,53.35
2023-02-27T12:40:52.878Z,52.64
2023-02-27T12:42:33.241Z,52.22
2023-02-27T12:44:27.084Z,53.17
2023-02-27T12:45:51.568Z,53.29
2023-02-27T12:46:53.078Z,52.47
2023-02-27T12:48:03.634Z,52.06
2023-02-27T12:49:20.381Z,51.26
2023-02-27T12:50:24.680Z,52.05
2023-02-27T12:51:29.634Z,50.88
2023-02-27T12:52:49.810Z,50.98
2023-02-27T12:54:10.345Z,50.80
2023-02-27T12:55:18.144Z,49.69
2023-02-27T12:56:23.447Z,51.04
2023-02-27T12:57:31.341Z,49.88
2023-02-27T12:59:02.165Z,50.84
2023-02-27T13:00:15.053Z,50.08
2023-02-27T13:01:37.172Z,50.54
2023-02-27T13:02:47.592Z,50.35
2023-02-27T13:04:04.450Z,49.81
2023-02-27T13:05:37.251Z,50.08
2023-02-27T13:06:51.808Z,51.79
2023-02-27T13:08:11.588Z,51.48
2023-02-27T13:09:42.244Z,49.61
2023-02-27T13:10:50.395Z,50.39
2023-02-27T13:12:01.012Z,49.55
2023-02-27T13:13:22.826Z,50.01
2023-02-27T13:14:48.023Z,50.20
2023-02-27T13:16:00.778Z,50.64
2023-02-27T13:17:18.850Z,51.70
2023-02-27T13:18:38.750Z,50.71
2023-02-27T13:19:58.256Z,49.74
2023-02-27T13:21:05.374Z,48.70
2023-02-27T13:22:14.364Z,50.02
2023-02-27T13:23:23.000Z,50.86
2023-02-27T13:24:27.894Z,48.92
2023-02-27T13:25:30.720Z,46.95
2023-02-27T13:26:39.289Z,47.61
2023-02-27T13:28:02.679Z,49.12
2023-02-27T13:29:05.930Z,46.30
2023-02-27T13:30:13.980Z,48.40
2023-02-27T13:31:23.196Z,47.19
2023-02-27T13:32:42.790Z,46.40
2023-02-27T13:34:00.159Z,49.27
2023-02-27T13:35:13.739Z,48.49
2023-02-27T13:36:42.499Z,47.88
2023-02-27T13:37:50.920Z,48.36
2023-02-27T13:38:54.784Z,48.52
2023-02-27T13:39:56.441Z,47.72
2023-02-27T13:40:58.299Z,47.92
2023-02-27T13:41:59.844Z,47.95
2023-02-27T13:43:24.487Z,46.65
2023-02-27T13:44:26.966Z,47.69
2023-02-27T13:45:54.889Z,48.57
2023-02-27T13:47:31.259Z,48.53
2023-02-27T13:48:42.006Z,47.87
2023-02-27T13:49:43.795Z,49.38
2023-02-27T13:50:50.390Z,50.69
2023-02-27T13:51:53.817Z,50.18
2023-02-27T13:52:55.450Z,48.91
2023-02-27T13:54:15.021Z,51.44
2023-02-27T13:55:27.761Z,52.43
2023-02-27T13:56:29.437Z,51.82
2023-02-27T13:57:35.160Z,52.43
2023-02-27T13:58:44.231Z,53.07
2023-02-27T13:59:53.869Z,54.08
2023-02-27T14:00:59.122Z,53.54
2023-02-27T14:02:04.853Z,52.89
2023-02-27T14:03:23.985Z,53.98
2023-02-27T14:04:29.655Z,53.89
2023-02-27T14:05:31.314Z,53.84
2023-02-27T14:06:33.276Z,54.38
2023-02-27T14:07:55.386Z,54.82
2023-02-27T14:09:12.897Z,54.16
2023-02-27T14:10:29.393Z,54.50
2023-02-27T14:11:39.700Z,54.42
2023-02-27T14:12:45.867Z,53.73
2023-02-27T14:13:50.631Z,53.71
2023-02-27T14:14:53.083Z,54.27
2023-02-27T14:15:57.804Z,54.42
2023-02-27T14:17:01.327Z,54.58
2023-02-27T14:18:14.207Z,52.40
2023-02-27T14:19:21.014Z,52.25
2023-02-27T14:20:27.423Z,53.28
2023-02-27T14:21:51.020Z,53.42
2023-02-27T14:23:17.260Z,52.51
2023-02-27T14:24:21.760Z,52.83
2023-02-27T14:25:36.988Z,52.31
2023-02-27T14:26:39.985Z,51.87
2023-02-27T14:27:44.324Z,51.97
2023-02-27T14:28:54.022Z,51.38
2023-02-27T14:30:00.671Z,51.34
2023-02-27T14:31:06.411Z,51.36
2023-02-27T14:32:08.695Z,51.18
2023-02-27T14:33:45.934Z,51.18